Rottnest Island, Australia
Current Conditions -  °F | °C
As of 8:30 PM on Saturday 25 Oct 2014 (Local Time) from YPJT Reporting Station
Broken Clouds Broken Clouds  
Wind Chill: 64°   Ceiling: 5000
Heat Index: 64°   Visibility: 6mi
Dew Point: 55°   Wind: 13mph
Humidity: 73%   Direction: 230°SW
Pressure: 30.12"   Gusts: NA
Location:  32°S, 115.54°E
Report Text: YPJT 251230Z AUTO 23011KT 9999 // SCT044 BKN050 18/13 Q1020
Loading
Personal Weather Stations






























Interactive Weather Map
Tropical Storm Tracking
New forecast layout! Learn more

10-Day Weather Forecast

Advertisements
Track Severe Weather on mobile